createdAt,value
2022-12-19T00:01:43.420Z,22.35
2022-12-19T00:04:34.122Z,22.02
2022-12-19T00:07:24.435Z,21.67
2022-12-19T00:10:14.626Z,21.77
2022-12-19T00:13:04.991Z,22.73
2022-12-19T00:15:55.421Z,22.63
2022-12-19T00:18:46.899Z,23.20
2022-12-19T00:21:37.841Z,22.15
2022-12-19T00:24:27.778Z,22.75
2022-12-19T00:27:18.064Z,20.92
2022-12-19T00:30:08.626Z,22.65
2022-12-19T00:32:58.846Z,21.58
2022-12-19T00:35:48.686Z,22.23
2022-12-19T00:38:38.889Z,21.17
2022-12-19T00:41:32.229Z,22.50
2022-12-19T00:44:22.607Z,22.30
2022-12-19T00:47:12.584Z,22.05
2022-12-19T00:50:03.498Z,24.00
2022-12-19T00:52:53.546Z,22.13
2022-12-19T00:55:43.481Z,21.45
2022-12-19T00:58:35.588Z,21.33
2022-12-19T01:01:33.139Z,21.95
2022-12-19T01:04:28.460Z,20.98
2022-12-19T01:07:18.927Z,21.90
2022-12-19T01:10:09.522Z,21.90
2022-12-19T01:12:59.525Z,23.30
2022-12-19T01:15:49.357Z,20.98
2022-12-19T01:18:39.688Z,21.73
2022-12-19T01:21:29.775Z,21.90
2022-12-19T01:24:19.927Z,20.60
2022-12-19T01:27:13.057Z,21.75
2022-12-19T01:30:04.501Z,21.30
2022-12-19T01:32:56.957Z,20.80
2022-12-19T01:35:47.939Z,23.95
2022-12-19T01:38:38.030Z,21.13
2022-12-19T01:41:27.964Z,22.85
2022-12-19T01:44:17.909Z,21.70
2022-12-19T01:47:12.759Z,21.60
2022-12-19T01:50:03.607Z,20.75
2022-12-19T01:52:55.311Z,20.33
2022-12-19T01:55:46.977Z,22.17
2022-12-19T01:58:39.823Z,20.10
2022-12-19T02:01:29.927Z,19.98
2022-12-19T02:04:21.090Z,20.58
2022-12-19T02:07:15.958Z,20.48
2022-12-19T02:10:07.063Z,18.67
2022-12-19T02:12:59.375Z,21.30
2022-12-19T02:16:04.958Z,19.67
2022-12-19T02:19:19.247Z,20.15
2022-12-19T02:25:21.490Z,20.35
2022-12-19T02:28:32.747Z,20.23
2022-12-19T02:31:28.713Z,19.40
2022-12-19T02:34:33.320Z,20.05
2022-12-19T02:37:32.601Z,22.02
2022-12-19T02:40:32.989Z,20.85
2022-12-19T02:43:24.939Z,20.15
2022-12-19T02:46:18.394Z,21.23
2022-12-19T02:49:09.576Z,20.48
2022-12-19T02:52:18.591Z,20.25
2022-12-19T02:55:22.035Z,18.90
2022-12-19T02:58:20.031Z,20.77
2022-12-19T03:01:52.587Z,20.35
2022-12-19T03:04:50.513Z,21.17
2022-12-19T03:07:52.308Z,20.90
2022-12-19T03:10:45.410Z,22.08
2022-12-19T03:13:44.590Z,20.60
2022-12-19T03:16:37.022Z,21.48
2022-12-19T03:19:28.565Z,21.92
2022-12-19T03:22:18.924Z,20.60
2022-12-19T03:25:09.319Z,22.08
2022-12-19T03:28:10.256Z,21.85
2022-12-19T03:31:02.797Z,22.30
2022-12-19T03:34:01.396Z,22.10
2022-12-19T03:36:56.164Z,22.35
2022-12-19T03:39:50.960Z,21.40
2022-12-19T03:43:01.016Z,22.80
2022-12-19T03:46:06.531Z,22.05
2022-12-19T03:48:57.033Z,22.23
2022-12-19T03:52:11.925Z,23.05
2022-12-19T03:55:13.740Z,23.10
2022-12-19T03:58:14.279Z,22.55
2022-12-19T04:01:06.094Z,23.58
2022-12-19T04:03:57.447Z,22.88
2022-12-19T04:06:49.212Z,22.58
2022-12-19T04:09:42.477Z,23.33
2022-12-19T04:12:38.611Z,22.25
2022-12-19T04:15:40.890Z,23.20
2022-12-19T04:18:31.782Z,22.60
2022-12-19T04:21:31.936Z,21.85
2022-12-19T04:24:29.980Z,23.52
2022-12-19T04:27:21.908Z,23.05
2022-12-19T04:30:16.002Z,22.33
2022-12-19T04:33:06.124Z,23.40
2022-12-19T04:35:58.576Z,20.45
2022-12-19T04:38:48.722Z,22.75
2022-12-19T04:41:39.302Z,21.73
2022-12-19T04:44:29.705Z,22.67
2022-12-19T04:47:20.072Z,21.40
2022-12-19T04:50:10.071Z,23.38
2022-12-19T04:53:00.979Z,21.95
2022-12-19T04:55:51.379Z,21.88
2022-12-19T04:58:41.593Z,20.85
2022-12-19T05:01:31.671Z,21.65
2022-12-19T05:04:21.834Z,22.13
2022-12-19T05:07:13.653Z,22.13
2022-12-19T05:10:04.941Z,20.92
2022-12-19T05:12:55.326Z,21.73
2022-12-19T05:15:55.980Z,22.65
2022-12-19T05:18:46.236Z,20.42
2022-12-19T05:21:36.542Z,23.00
2022-12-19T05:24:26.746Z,20.58
2022-12-19T05:27:17.009Z,22.13
2022-12-19T05:30:07.869Z,21.73
2022-12-19T05:32:58.403Z,21.52
2022-12-19T05:35:49.366Z,21.20
2022-12-19T05:38:40.112Z,22.35
2022-12-19T05:41:30.371Z,22.00
2022-12-19T05:44:20.974Z,19.98
2022-12-19T05:47:11.106Z,19.85
2022-12-19T05:50:02.055Z,21.10
2022-12-19T05:52:52.167Z,21.17
2022-12-19T05:55:42.307Z,20.88
2022-12-19T05:58:32.495Z,21.80
2022-12-19T06:01:26.101Z,21.17
2022-12-19T06:04:16.324Z,22.40
2022-12-19T06:07:06.505Z,20.80
2022-12-19T06:09:56.458Z,19.92
2022-12-19T06:12:46.704Z,20.25
2022-12-19T06:15:36.709Z,20.70
2022-12-19T06:18:28.151Z,20.85
2022-12-19T06:21:20.900Z,20.13
2022-12-19T06:24:10.977Z,22.13
2022-12-19T06:27:01.051Z,20.33
2022-12-19T06:29:51.437Z,21.98
2022-12-19T06:32:41.266Z,20.50
2022-12-19T06:35:31.922Z,22.05
2022-12-19T06:38:22.091Z,21.27
2022-12-19T06:41:31.904Z,20.70
2022-12-19T06:44:22.216Z,21.83
2022-12-19T06:47:12.323Z,21.05
2022-12-19T06:50:02.411Z,21.00
2022-12-19T06:52:52.609Z,20.85
2022-12-19T06:55:43.562Z,20.73
2022-12-19T06:58:34.363Z,20.88
2022-12-19T07:01:49.079Z,19.67
2022-12-19T07:04:43.712Z,19.73
2022-12-19T07:07:37.117Z,20.42
2022-12-19T07:10:27.323Z,21.33
2022-12-19T07:13:17.695Z,21.73
2022-12-19T07:16:08.416Z,19.65
2022-12-19T07:18:59.218Z,22.25
2022-12-19T07:21:50.029Z,20.27
2022-12-19T07:24:40.773Z,21.67
2022-12-19T07:27:35.607Z,20.63
2022-12-19T07:30:26.553Z,20.95
2022-12-19T07:33:21.407Z,21.20
2022-12-19T07:36:12.590Z,19.77
2022-12-19T07:39:02.861Z,20.95
2022-12-19T07:41:53.404Z,20.20
2022-12-19T07:44:53.795Z,19.80
2022-12-19T07:47:43.530Z,20.20
2022-12-19T07:50:34.695Z,20.38
2022-12-19T07:53:25.514Z,19.27
2022-12-19T07:56:15.717Z,20.48
2022-12-19T07:59:06.542Z,19.58
2022-12-19T08:01:56.892Z,21.27
2022-12-19T08:04:47.121Z,20.30
2022-12-19T08:07:37.322Z,20.42
2022-12-19T08:10:27.595Z,21.33
2022-12-19T08:13:17.447Z,21.30
2022-12-19T08:16:07.671Z,19.88
2022-12-19T08:18:58.078Z,22.05
2022-12-19T08:21:48.485Z,24.08
2022-12-19T08:24:38.558Z,22.52
2022-12-19T08:27:28.549Z,20.77
2022-12-19T08:30:18.981Z,22.13
2022-12-19T08:33:09.211Z,20.00
2022-12-19T08:36:04.198Z,21.17
2022-12-19T08:38:54.921Z,52.53
2022-12-19T08:41:45.240Z,26.00
2022-12-19T08:44:35.400Z,22.40
2022-12-19T08:47:25.394Z,23.90
2022-12-19T08:50:15.434Z,22.35
2022-12-19T08:53:06.080Z,20.15
2022-12-19T08:55:58.201Z,21.30
2022-12-19T08:58:51.660Z,20.63
2022-12-19T09:01:42.211Z,19.92
2022-12-19T09:06:00.804Z,19.48
2022-12-19T09:07:42.529Z,20.48
2022-12-19T09:10:35.523Z,19.17
2022-12-19T09:13:31.663Z,20.25
2022-12-19T09:16:23.138Z,22.80
2022-12-19T09:19:15.592Z,19.73
2022-12-19T09:22:06.016Z,20.30
2022-12-19T09:24:55.995Z,20.48
2022-12-19T09:28:18.050Z,20.23
2022-12-19T09:30:58.573Z,20.60
2022-12-19T09:33:49.515Z,19.50
2022-12-19T09:36:39.975Z,18.67
2022-12-19T09:39:30.513Z,19.55
2022-12-19T09:42:53.479Z,19.40
2022-12-19T09:45:52.423Z,20.45
2022-12-19T09:48:43.344Z,20.63
2022-12-19T09:51:43.258Z,19.38
2022-12-19T09:54:41.757Z,19.98
2022-12-19T09:57:51.177Z,20.05
2022-12-19T10:00:55.037Z,19.83
2022-12-19T10:04:12.813Z,18.55
2022-12-19T10:07:11.790Z,19.38
2022-12-19T10:12:35.371Z,18.55
2022-12-19T10:13:50.387Z,19.90
2022-12-19T10:17:30.052Z,18.50
2022-12-19T10:20:35.834Z,17.35
2022-12-19T10:23:50.559Z,18.58
2022-12-19T10:26:52.511Z,17.67
2022-12-19T10:30:09.972Z,18.90
2022-12-19T10:33:05.866Z,19.40
2022-12-19T10:36:02.195Z,19.90
2022-12-19T10:39:11.643Z,17.67
2022-12-19T10:42:16.091Z,18.63
2022-12-19T10:45:14.271Z,19.67
2022-12-19T10:48:09.189Z,18.45
2022-12-19T10:51:02.127Z,18.70
2022-12-19T10:53:59.844Z,17.67
2022-12-19T10:56:50.306Z,18.08
2022-12-19T10:59:54.407Z,18.17
2022-12-19T11:05:47.554Z,16.83
2022-12-19T11:08:41.608Z,17.60
2022-12-19T11:14:29.797Z,18.33
2022-12-19T11:19:27.532Z,17.20
2022-12-19T11:20:31.778Z,17.67
2022-12-19T11:29:33.343Z,17.08
2022-12-19T11:29:47.129Z,16.95
2022-12-19T11:30:47.113Z,15.68
2022-12-19T11:34:37.255Z,16.80
2022-12-19T11:37:38.908Z,16.90
2022-12-19T11:40:38.637Z,17.20
2022-12-19T11:43:44.548Z,17.30
2022-12-19T11:46:40.646Z,19.23
2022-12-19T11:49:51.354Z,16.95
2022-12-19T11:53:14.619Z,17.00
2022-12-19T11:56:15.790Z,16.70
2022-12-19T11:59:25.958Z,16.80
2022-12-19T12:02:51.594Z,16.23
2022-12-19T12:05:47.749Z,14.90
2022-12-19T12:11:16.413Z,15.45
2022-12-19T12:19:10.296Z,15.30
2022-12-19T12:29:13.866Z,13.43
2022-12-19T12:31:05.841Z,14.68
2022-12-19T12:31:28.655Z,14.60
2022-12-19T12:31:57.578Z,15.20
2022-12-19T12:31:59.017Z,15.27
2022-12-19T12:35:28.679Z,15.35
2022-12-19T12:40:01.849Z,15.80
2022-12-19T12:43:09.631Z,16.35
2022-12-19T12:46:03.000Z,15.52
2022-12-19T12:49:03.007Z,15.65
2022-12-19T12:51:53.808Z,14.02
2022-12-19T12:54:46.156Z,15.85
2022-12-19T12:57:38.320Z,14.77
2022-12-19T13:00:33.852Z,15.80
2022-12-19T13:03:28.057Z,14.90
2022-12-19T13:06:34.932Z,15.10
2022-12-19T13:09:30.976Z,15.48
2022-12-19T13:13:05.157Z,16.70
2022-12-19T13:15:58.454Z,14.70
2022-12-19T13:19:18.402Z,15.48
2022-12-19T13:22:18.926Z,14.63
2022-12-19T13:25:41.726Z,15.45
2022-12-19T13:28:38.816Z,15.95
2022-12-19T13:31:35.815Z,14.18
2022-12-19T13:34:36.229Z,15.18
2022-12-19T13:39:54.294Z,15.80
2022-12-19T13:40:59.736Z,16.35
2022-12-19T13:43:50.036Z,14.77
2022-12-19T13:46:43.550Z,16.23
2022-12-19T13:49:34.654Z,15.93
2022-12-19T13:52:25.805Z,17.00
2022-12-19T13:55:16.643Z,16.48
2022-12-19T13:58:08.472Z,16.60
2022-12-19T14:01:04.680Z,18.67
2022-12-19T14:03:57.653Z,16.75
2022-12-19T14:07:04.974Z,16.50
2022-12-19T14:11:29.200Z,16.05
2022-12-19T14:13:43.131Z,16.33
2022-12-19T14:16:44.832Z,17.33
2022-12-19T14:19:42.563Z,16.65
2022-12-19T14:22:33.000Z,16.60
2022-12-19T14:28:03.282Z,15.50
2022-12-19T14:28:55.102Z,16.48
2022-12-19T14:32:33.385Z,17.83
2022-12-19T14:36:05.258Z,16.08
2022-12-19T14:39:24.147Z,17.60
2022-12-19T14:41:46.988Z,16.33
2022-12-19T14:52:50.775Z,17.75
2022-12-19T14:54:03.376Z,17.95
2022-12-19T14:54:28.913Z,16.52
2022-12-19T14:58:50.616Z,19.63
2022-12-19T15:01:10.315Z,22.40
2022-12-19T15:04:53.319Z,28.02
2022-12-19T15:07:28.279Z,18.13
2022-12-19T15:11:07.819Z,18.30
2022-12-19T15:14:57.537Z,18.50
2022-12-19T15:17:21.205Z,16.85
2022-12-19T15:20:11.900Z,16.17
2022-12-19T15:23:02.146Z,17.27
2022-12-19T15:26:09.029Z,16.00
2022-12-19T15:29:00.158Z,16.40
2022-12-19T15:31:50.806Z,17.30
2022-12-19T15:34:50.471Z,21.77
2022-12-19T15:37:41.484Z,22.13
2022-12-19T15:40:31.657Z,23.40
2022-12-19T15:44:01.970Z,19.60
2022-12-19T15:46:33.739Z,23.73
2022-12-19T15:49:23.919Z,20.52
2022-12-19T15:52:19.026Z,21.05
2022-12-19T15:55:14.429Z,18.92
2022-12-19T15:58:06.493Z,18.55
2022-12-19T16:01:03.512Z,17.25
2022-12-19T16:03:56.093Z,15.65
2022-12-19T16:06:46.431Z,16.38
2022-12-19T16:09:36.419Z,16.70
2022-12-19T16:12:38.724Z,17.65
2022-12-19T16:15:32.235Z,19.25
2022-12-19T16:18:22.684Z,14.88
2022-12-19T16:21:26.149Z,18.08
2022-12-19T16:24:22.412Z,16.52
2022-12-19T16:27:22.784Z,16.55
2022-12-19T16:30:20.922Z,19.35
2022-12-19T16:33:20.435Z,17.45
2022-12-19T16:36:10.312Z,18.80
2022-12-19T16:39:00.870Z,20.65
2022-12-19T16:41:52.533Z,18.25
2022-12-19T16:44:45.915Z,17.80
2022-12-19T16:47:36.458Z,17.95
2022-12-19T16:50:29.750Z,17.92
2022-12-19T16:53:20.230Z,18.35
2022-12-19T16:56:23.238Z,17.38
2022-12-19T16:59:16.558Z,17.20
2022-12-19T17:02:42.343Z,19.60
2022-12-19T17:05:33.380Z,20.60
2022-12-19T17:08:24.102Z,26.27
2022-12-19T17:11:14.508Z,24.92
2022-12-19T17:14:10.583Z,27.55
2022-12-19T17:17:01.470Z,25.13
2022-12-19T17:19:52.370Z,23.52
2022-12-19T17:22:42.651Z,22.33
2022-12-19T17:25:33.269Z,20.58
2022-12-19T17:28:23.497Z,18.48
2022-12-19T17:31:24.535Z,18.75
2022-12-19T17:34:37.362Z,18.95
2022-12-19T17:37:28.121Z,19.13
2022-12-19T17:40:25.896Z,20.75
2022-12-19T17:43:16.354Z,20.48
2022-12-19T17:46:11.512Z,21.33
2022-12-19T17:49:02.042Z,23.35
2022-12-19T17:51:52.521Z,28.00
2022-12-19T17:54:42.672Z,30.23
2022-12-19T17:57:32.812Z,29.85
2022-12-19T18:00:30.424Z,29.75
2022-12-19T18:03:26.599Z,24.58
2022-12-19T18:06:17.151Z,24.65
2022-12-19T18:09:21.471Z,23.50
2022-12-19T18:12:11.565Z,24.33
2022-12-19T18:15:01.767Z,33.35
2022-12-19T18:21:16.845Z,21.60
2022-12-19T18:24:11.967Z,20.20
2022-12-19T18:27:02.534Z,19.73
2022-12-19T18:29:52.713Z,20.25
2022-12-19T18:32:51.478Z,22.77
2022-12-19T18:35:44.914Z,25.15
2022-12-19T18:38:35.571Z,25.55
2022-12-19T18:41:26.484Z,21.63
2022-12-19T18:44:17.205Z,22.90
2022-12-19T18:47:22.220Z,21.85
2022-12-19T18:50:20.513Z,19.80
2022-12-19T18:53:12.765Z,19.85
2022-12-19T18:56:05.678Z,19.85
2022-12-19T18:58:56.041Z,21.55
2022-12-19T19:01:47.656Z,19.48
2022-12-19T19:04:37.970Z,19.33
2022-12-19T19:07:27.975Z,20.02
2022-12-19T19:10:25.702Z,19.35
2022-12-19T19:13:25.831Z,18.77
2022-12-19T19:16:19.924Z,19.65
2022-12-19T19:22:03.071Z,16.30
2022-12-19T19:24:53.683Z,18.15
2022-12-19T19:27:44.921Z,18.48
2022-12-19T19:30:37.809Z,18.17
2022-12-19T19:33:57.621Z,23.63
2022-12-19T19:36:53.694Z,20.75
2022-12-19T19:44:08.536Z,24.92
2022-12-19T19:46:58.711Z,23.17
2022-12-19T19:49:48.845Z,23.40
2022-12-19T19:52:40.110Z,20.55
2022-12-19T19:55:30.224Z,20.50
2022-12-19T19:58:20.748Z,21.42
2022-12-19T20:01:12.353Z,20.50
2022-12-19T20:04:03.285Z,23.92
2022-12-19T20:06:53.859Z,24.45
2022-12-19T20:09:44.612Z,27.92
2022-12-19T20:12:35.175Z,33.78
2022-12-19T20:15:25.618Z,34.97
2022-12-19T20:18:15.888Z,33.75
2022-12-19T20:21:13.459Z,30.45
2022-12-19T20:24:04.400Z,29.42
2022-12-19T20:26:55.035Z,26.02
2022-12-19T20:29:45.411Z,26.63
2022-12-19T20:32:35.949Z,25.52
2022-12-19T20:35:26.427Z,22.73
2022-12-19T20:38:16.991Z,20.40
2022-12-19T20:41:07.750Z,22.08
2022-12-19T20:43:58.039Z,26.13
2022-12-19T20:46:49.680Z,27.60
2022-12-19T20:49:40.174Z,26.38
2022-12-19T20:52:31.179Z,26.73
2022-12-19T20:55:22.414Z,28.23
2022-12-19T20:58:12.821Z,27.38
2022-12-19T21:01:23.714Z,27.70
2022-12-19T21:04:14.587Z,25.73
2022-12-19T21:07:05.323Z,27.63
2022-12-19T21:09:55.618Z,27.90
2022-12-19T21:12:48.032Z,29.15
2022-12-19T21:15:39.216Z,27.10
2022-12-19T21:18:30.521Z,28.85
2022-12-19T21:21:24.294Z,29.63
2022-12-19T21:24:14.639Z,28.45
2022-12-19T21:27:05.145Z,27.30
2022-12-19T21:29:55.712Z,25.45
2022-12-19T21:32:46.296Z,31.60
2022-12-19T21:35:37.932Z,29.30
2022-12-19T21:38:28.534Z,28.75
2022-12-19T21:41:19.506Z,29.25
2022-12-19T21:44:11.448Z,30.48
2022-12-19T21:47:01.779Z,27.45
2022-12-19T21:49:51.943Z,28.35
2022-12-19T21:52:42.477Z,26.05
2022-12-19T21:55:32.816Z,27.45
2022-12-19T21:58:23.097Z,25.65
2022-12-19T22:01:14.239Z,24.15
2022-12-19T22:04:11.951Z,24.25
2022-12-19T22:07:05.244Z,24.35
2022-12-19T22:09:59.095Z,24.20
2022-12-19T22:12:50.966Z,24.95
2022-12-19T22:15:44.133Z,26.90
2022-12-19T22:21:29.900Z,23.10
2022-12-19T22:24:20.220Z,21.15
2022-12-19T22:27:10.826Z,23.23
2022-12-19T22:30:05.046Z,23.15
2022-12-19T22:33:00.559Z,23.08
2022-12-19T22:35:51.096Z,21.30
2022-12-19T22:38:44.093Z,24.20
2022-12-19T22:41:35.689Z,22.08
2022-12-19T22:44:26.167Z,21.23
2022-12-19T22:47:16.394Z,21.17
2022-12-19T22:50:07.278Z,19.40
2022-12-19T22:52:57.805Z,19.10
2022-12-19T22:55:50.609Z,19.50
2022-12-19T22:58:43.255Z,18.90
2022-12-19T23:01:42.671Z,18.88
2022-12-19T23:04:33.204Z,19.88
2022-12-19T23:07:23.505Z,18.90
2022-12-19T23:10:14.211Z,19.38
2022-12-19T23:13:04.285Z,20.73
2022-12-19T23:15:56.631Z,25.52
2022-12-19T23:18:46.583Z,22.48
2022-12-19T23:21:36.993Z,20.85
2022-12-19T23:24:27.439Z,19.33
2022-12-19T23:27:17.416Z,18.83
2022-12-19T23:30:08.358Z,20.13
2022-12-19T23:32:58.480Z,21.60
2022-12-19T23:35:48.707Z,20.88
2022-12-19T23:38:38.737Z,22.17
2022-12-19T23:41:29.340Z,21.85
2022-12-19T23:44:19.853Z,21.48
2022-12-19T23:47:10.277Z,19.58
2022-12-19T23:50:00.206Z,19.35
2022-12-19T23:52:50.552Z,18.90
2022-12-19T23:55:40.928Z,18.90
2022-12-19T23:58:30.787Z,18.83
